createdAt,value
2019-01-25T00:01:06.865Z,100761.35
2019-01-25T00:03:36.652Z,100770.67
2019-01-25T00:06:07.103Z,100761.17
2019-01-25T00:08:36.699Z,100766.95
2019-01-25T00:11:06.535Z,100763.30
2019-01-25T00:13:36.199Z,100757.70
2019-01-25T00:16:07.255Z,100767.12
2019-01-25T00:18:36.859Z,100767.12
2019-01-25T00:21:06.819Z,100767.52
2019-01-25T00:23:36.419Z,100760.14
2019-01-25T00:26:07.614Z,100768.69
2019-01-25T00:28:37.180Z,100765.07
2019-01-25T00:31:06.769Z,100768.62
2019-01-25T00:33:36.308Z,100775.00
2019-01-25T00:36:06.666Z,100765.95
2019-01-25T00:38:36.191Z,100775.28
2019-01-25T00:41:06.090Z,100777.55
2019-01-25T00:43:35.867Z,100769.22
2019-01-25T00:46:05.559Z,100762.84
2019-01-25T00:48:35.166Z,100772.05
2019-01-25T00:51:05.053Z,100767.62
2019-01-25T00:53:34.597Z,100763.19
2019-01-25T00:56:04.584Z,100775.45
2019-01-25T00:58:34.115Z,100780.45
2019-01-25T01:01:04.061Z,100766.31
2019-01-25T01:03:33.600Z,100772.69
2019-01-25T01:06:03.122Z,100771.41
2019-01-25T01:08:32.658Z,100772.23
2019-01-25T01:11:02.184Z,100772.23
2019-01-25T01:13:31.724Z,100771.63
2019-01-25T01:16:01.560Z,100781.16
2019-01-25T01:18:31.133Z,100775.39
2019-01-25T01:21:00.714Z,100774.61
2019-01-25T01:23:30.270Z,100780.20
2019-01-25T01:25:59.791Z,100788.97
2019-01-25T01:28:29.330Z,100789.92
2019-01-25T01:30:58.851Z,100788.97
2019-01-25T01:33:28.393Z,100783.44
2019-01-25T01:35:57.909Z,100782.98
2019-01-25T01:38:27.513Z,100781.31
2019-01-25T01:40:57.048Z,100781.31
2019-01-25T01:43:26.594Z,100786.41
2019-01-25T01:45:56.116Z,100781.59
2019-01-25T01:48:25.653Z,100791.52
2019-01-25T01:50:55.172Z,100802.12
2019-01-25T01:53:24.696Z,100795.91
2019-01-25T01:55:54.245Z,100790.91
2019-01-25T01:58:23.763Z,100798.75
2019-01-25T02:00:53.324Z,100788.26
2019-01-25T02:03:22.857Z,100786.81
2019-01-25T02:05:52.794Z,100793.30
2019-01-25T02:08:22.324Z,100790.06
2019-01-25T02:10:51.940Z,100799.50
2019-01-25T02:13:21.548Z,100789.89
2019-01-25T02:15:51.158Z,100789.89
2019-01-25T02:18:20.683Z,100791.73
2019-01-25T02:20:50.223Z,100790.17
2019-01-25T02:23:19.748Z,100787.84
2019-01-25T02:25:49.301Z,100783.58
2019-01-25T02:28:18.816Z,100779.08
2019-01-25T02:30:48.365Z,100780.45
2019-01-25T02:33:17.884Z,100779.28
2019-01-25T02:35:47.595Z,100768.68
2019-01-25T02:38:17.125Z,100770.45
2019-01-25T02:40:46.737Z,100773.89
2019-01-25T02:43:16.259Z,100773.03
2019-01-25T02:45:46.046Z,100763.78
2019-01-25T02:48:15.833Z,100771.05
2019-01-25T02:50:45.369Z,100769.98
2019-01-25T02:53:14.883Z,100766.84
2019-01-25T02:55:44.422Z,100768.78
2019-01-25T02:58:14.054Z,100758.75
2019-01-25T03:00:43.641Z,100770.84
2019-01-25T03:03:13.263Z,100767.22
2019-01-25T03:05:42.848Z,100764.17
2019-01-25T03:08:12.404Z,100771.45
2019-01-25T03:10:47.087Z,100774.00
2019-01-25T03:13:13.252Z,100760.73
2019-01-25T03:15:42.809Z,100759.95
2019-01-25T03:18:12.454Z,100766.05
2019-01-25T03:20:42.007Z,100761.05
2019-01-25T03:23:11.586Z,100758.00
2019-01-25T03:25:41.214Z,100764.28
2019-01-25T03:28:11.155Z,100758.78
2019-01-25T03:30:40.790Z,100759.56
2019-01-25T03:33:10.445Z,100763.39
2019-01-25T03:35:40.068Z,100764.95
2019-01-25T03:38:09.648Z,100761.80
2019-01-25T03:40:39.267Z,100766.23
2019-01-25T03:43:08.855Z,100770.45
2019-01-25T03:45:38.410Z,100772.69
2019-01-25T03:48:08.126Z,100771.70
2019-01-25T03:50:37.676Z,100768.76
2019-01-25T03:53:07.247Z,100771.63
2019-01-25T03:55:36.800Z,100776.73
2019-01-25T03:58:06.515Z,100771.52
2019-01-25T04:00:36.136Z,100777.02
2019-01-25T04:03:05.946Z,100780.35
2019-01-25T04:05:35.512Z,100774.15
2019-01-25T04:08:05.989Z,100778.27
2019-01-25T04:10:35.689Z,100779.25
2019-01-25T04:13:05.501Z,100783.30
2019-01-25T04:15:35.468Z,100773.97
2019-01-25T04:18:05.584Z,100782.80
2019-01-25T04:20:35.206Z,100783.09
2019-01-25T04:23:05.093Z,100776.59
2019-01-25T04:25:34.719Z,100781.52
2019-01-25T04:28:04.469Z,100778.41
2019-01-25T04:30:34.039Z,100777.62
2019-01-25T04:33:03.685Z,100777.80
2019-01-25T04:35:33.235Z,100781.45
2019-01-25T04:38:02.803Z,100781.66
2019-01-25T04:40:32.366Z,100785.98
2019-01-25T04:43:02.033Z,100783.05
2019-01-25T04:45:31.632Z,100780.98
2019-01-25T04:48:01.214Z,100780.59
2019-01-25T04:50:30.845Z,100777.36
2019-01-25T04:53:00.401Z,100774.00
2019-01-25T04:55:32.661Z,100777.05
2019-01-25T04:58:14.666Z,100775.38
2019-01-25T05:00:44.437Z,100772.04
2019-01-25T05:03:14.493Z,100777.25
2019-01-25T05:05:44.315Z,100781.58
2019-01-25T05:08:18.759Z,100780.80
2019-01-25T05:10:48.582Z,100791.61
2019-01-25T05:13:18.311Z,100784.34
2019-01-25T05:15:48.051Z,100791.90
2019-01-25T05:18:17.620Z,100791.80
2019-01-25T05:20:47.273Z,100792.39
2019-01-25T05:23:16.837Z,100790.44
2019-01-25T05:25:46.559Z,100788.28
2019-01-25T05:28:18.024Z,100799.87
2019-01-25T05:30:57.275Z,100788.28
2019-01-25T05:33:26.818Z,100789.16
2019-01-25T05:35:56.537Z,100788.28
2019-01-25T05:38:26.091Z,100784.34
2019-01-25T05:40:55.677Z,100785.02
2019-01-25T05:43:25.236Z,100785.80
2019-01-25T05:45:54.811Z,100782.75
2019-01-25T05:48:29.075Z,100776.27
2019-01-25T05:51:03.029Z,100779.70
2019-01-25T05:53:32.645Z,100779.02
2019-01-25T05:56:02.305Z,100775.97
2019-01-25T05:58:31.880Z,100786.01
2019-01-25T06:01:01.460Z,100768.52
2019-01-25T06:03:31.076Z,100777.46
2019-01-25T06:06:01.870Z,100775.80
2019-01-25T06:08:32.184Z,100768.70
2019-01-25T06:11:07.180Z,100775.20
2019-01-25T06:13:37.079Z,100775.87
2019-01-25T06:16:06.701Z,100783.64
2019-01-25T06:18:36.359Z,100770.55
2019-01-25T06:21:07.233Z,100778.71
2019-01-25T06:23:36.861Z,100771.16
2019-01-25T06:26:07.065Z,100781.86
2019-01-25T06:28:36.693Z,100778.92
2019-01-25T06:31:06.450Z,100784.91
2019-01-25T06:33:36.147Z,100780.80
2019-01-25T06:36:05.863Z,100783.06
2019-01-25T06:38:35.431Z,100784.73
2019-01-25T06:41:05.360Z,100783.45
2019-01-25T06:43:34.906Z,100798.00
2019-01-25T06:46:04.830Z,100796.93
2019-01-25T06:48:34.462Z,100798.88
2019-01-25T06:51:04.181Z,100797.81
2019-01-25T06:53:33.767Z,100800.66
2019-01-25T06:56:03.649Z,100795.66
2019-01-25T06:58:37.635Z,100798.20
2019-01-25T07:01:17.579Z,100802.53
2019-01-25T07:03:47.156Z,100802.05
2019-01-25T07:06:16.803Z,100810.09
2019-01-25T07:08:48.050Z,100804.20
2019-01-25T07:11:17.674Z,100809.87
2019-01-25T07:13:47.249Z,100820.91
2019-01-25T07:16:16.813Z,100817.86
2019-01-25T07:18:46.389Z,100816.20
2019-01-25T07:21:16.024Z,100819.21
2019-01-25T07:23:45.625Z,100823.93
2019-01-25T07:26:15.231Z,100826.98
2019-01-25T07:28:44.842Z,100819.70
2019-01-25T07:31:14.409Z,100815.59
2019-01-25T07:33:43.990Z,100823.46
2019-01-25T07:36:13.543Z,100821.90
2019-01-25T07:38:43.126Z,100814.73
2019-01-25T07:41:12.700Z,100817.78
2019-01-25T07:43:42.261Z,100817.59
2019-01-25T07:46:11.969Z,100816.39
2019-01-25T07:48:41.600Z,100820.05
2019-01-25T07:51:11.186Z,100810.33
2019-01-25T07:53:40.760Z,100817.49
2019-01-25T07:56:10.473Z,100822.29
2019-01-25T07:58:40.034Z,100821.30
2019-01-25T08:01:09.848Z,100818.92
2019-01-25T08:03:39.484Z,100817.47
2019-01-25T08:06:09.024Z,100820.72
2019-01-25T08:08:38.580Z,100817.49
2019-01-25T08:11:08.205Z,100818.88
2019-01-25T08:13:37.781Z,100823.48
2019-01-25T08:16:07.347Z,100818.29
2019-01-25T08:18:36.929Z,100816.05
2019-01-25T08:21:06.569Z,100819.95
2019-01-25T08:23:36.157Z,100824.77
2019-01-25T08:26:05.966Z,100826.64
2019-01-25T08:28:35.514Z,100815.84
2019-01-25T08:31:05.297Z,100822.05
2019-01-25T08:33:34.838Z,100820.16
2019-01-25T08:36:04.732Z,100819.08
2019-01-25T08:38:34.333Z,100822.71
2019-01-25T08:41:03.887Z,100830.67
2019-01-25T08:43:33.432Z,100818.31
2019-01-25T08:46:03.497Z,100828.44
2019-01-25T08:48:33.102Z,100825.78
2019-01-25T08:51:02.792Z,100829.12
2019-01-25T08:53:32.824Z,100824.69
2019-01-25T08:56:02.429Z,100831.08
2019-01-25T08:58:31.979Z,100828.23
2019-01-25T09:01:01.801Z,100828.94
2019-01-25T09:03:31.350Z,100831.27
2019-01-25T09:06:00.996Z,100829.02
2019-01-25T09:08:30.721Z,100830.88
2019-01-25T09:11:00.298Z,100830.86
2019-01-25T09:13:29.849Z,100822.95
2019-01-25T09:15:59.855Z,100821.14
2019-01-25T09:18:29.414Z,100825.73
2019-01-25T09:20:59.021Z,100819.08
2019-01-25T09:23:28.668Z,100819.06
2019-01-25T09:26:01.058Z,100819.38
2019-01-25T09:28:29.497Z,100815.20
2019-01-25T09:30:59.072Z,100825.27
2019-01-25T09:33:28.628Z,100823.59
2019-01-25T09:35:58.158Z,100817.04
2019-01-25T09:38:27.801Z,100825.27
2019-01-25T09:40:57.352Z,100820.80
2019-01-25T09:43:26.909Z,100830.09
2019-01-25T09:45:56.846Z,100829.61
2019-01-25T09:48:26.385Z,100839.14
2019-01-25T09:50:55.939Z,100831.91
2019-01-25T09:53:25.714Z,100829.80
2019-01-25T09:55:55.246Z,100827.55
2019-01-25T09:58:25.080Z,100830.60
2019-01-25T10:01:01.975Z,100833.37
2019-01-25T10:03:31.781Z,100831.42
2019-01-25T10:06:01.352Z,100834.75
2019-01-25T10:08:31.131Z,100837.52
2019-01-25T10:11:00.664Z,100822.35
2019-01-25T10:13:30.220Z,100818.00
2019-01-25T10:16:00.176Z,100806.75
2019-01-25T10:18:29.789Z,100812.30
2019-01-25T10:20:59.338Z,100817.13
2019-01-25T10:23:29.257Z,100813.30
2019-01-25T10:25:58.861Z,100816.92
2019-01-25T10:28:28.402Z,100809.64
2019-01-25T10:31:07.200Z,100807.21
2019-01-25T10:33:43.768Z,100808.89
2019-01-25T10:36:16.780Z,100798.53
2019-01-25T10:39:02.241Z,100801.33
2019-01-25T10:44:05.222Z,100797.84
2019-01-25T10:46:39.667Z,100799.06
2019-01-25T10:49:11.649Z,100811.47
2019-01-25T10:52:03.250Z,100811.73
2019-01-25T10:54:42.609Z,100805.77
2019-01-25T10:57:17.249Z,100807.33
2019-01-25T10:59:55.454Z,100811.66
2019-01-25T11:02:25.100Z,100809.28
2019-01-25T11:05:07.971Z,100806.59
2019-01-25T11:11:29.760Z,100800.49
2019-01-25T11:15:09.752Z,100793.98
2019-01-25T11:16:58.401Z,100796.33
2019-01-25T11:20:20.479Z,100784.21
2019-01-25T11:23:04.567Z,100797.72
2019-01-25T11:25:47.398Z,100792.31
2019-01-25T11:28:32.057Z,100786.91
2019-01-25T11:43:41.576Z,100785.91
2019-01-25T11:47:07.670Z,100781.02
2019-01-25T11:49:41.416Z,100770.34
2019-01-25T11:52:28.936Z,100788.94
2019-01-25T11:56:01.221Z,100781.99
2019-01-25T11:58:34.255Z,100780.00
2019-01-25T12:01:19.315Z,100777.44
2019-01-25T12:04:00.584Z,100776.06
2019-01-25T12:06:32.156Z,100769.83
2019-01-25T12:09:52.346Z,100772.80
2019-01-25T12:12:01.544Z,100768.02
2019-01-25T12:14:36.406Z,100769.70
2019-01-25T12:20:35.164Z,100761.14
2019-01-25T12:24:18.894Z,100766.44
2019-01-25T12:26:35.064Z,100763.41
2019-01-25T12:29:14.312Z,100762.59
2019-01-25T12:35:46.136Z,100762.87
2019-01-25T12:37:54.676Z,100755.61
2019-01-25T12:44:44.810Z,100758.72
2019-01-25T12:47:06.839Z,100744.61
2019-01-25T12:53:34.022Z,100740.02
2019-01-25T12:56:21.655Z,100741.83
2019-01-25T13:01:59.267Z,100733.58
2019-01-25T13:07:31.966Z,100738.48
2019-01-25T13:10:55.995Z,100740.11
2019-01-25T13:16:47.591Z,100730.56
2019-01-25T13:19:54.501Z,100730.91
2019-01-25T13:22:45.075Z,100739.69
2019-01-25T13:35:36.970Z,100737.85
2019-01-25T13:41:38.919Z,100727.36
2019-01-25T13:49:34.405Z,100714.39
2019-01-25T13:52:19.895Z,100708.26
2019-01-25T13:57:30.760Z,100711.80
2019-01-25T14:00:08.472Z,100717.44
2019-01-25T14:02:48.655Z,100709.12
2019-01-25T14:07:57.568Z,100708.38
2019-01-25T14:10:33.568Z,100708.78
2019-01-25T14:13:03.218Z,100704.08
2019-01-25T14:15:33.263Z,100704.63
2019-01-25T14:18:02.964Z,100703.53
2019-01-25T14:20:34.042Z,100700.56
2019-01-25T14:23:03.746Z,100703.44
2019-01-25T14:25:33.330Z,100699.81
2019-01-25T14:28:02.910Z,100691.80
2019-01-25T14:30:36.675Z,100684.14
2019-01-25T14:33:07.252Z,100679.66
2019-01-25T14:35:37.089Z,100681.64
2019-01-25T14:38:07.444Z,100687.08
2019-01-25T14:40:37.093Z,100688.75
2019-01-25T14:43:06.720Z,100686.89
2019-01-25T14:45:37.145Z,100683.27
2019-01-25T14:48:08.264Z,100688.14
2019-01-25T14:50:37.882Z,100692.20
2019-01-25T14:53:07.974Z,100692.50
2019-01-25T14:55:37.540Z,100694.48
2019-01-25T14:58:07.365Z,100691.00
2019-01-25T15:00:36.981Z,100685.41
2019-01-25T15:03:06.798Z,100682.91
2019-01-25T15:05:36.427Z,100687.74
2019-01-25T15:08:06.453Z,100676.92
2019-01-25T15:10:36.059Z,100677.06
2019-01-25T15:13:07.049Z,100681.20
2019-01-25T15:15:36.741Z,100678.85
2019-01-25T15:18:06.662Z,100679.66
2019-01-25T15:20:36.288Z,100681.17
2019-01-25T15:23:06.206Z,100683.94
2019-01-25T15:25:35.818Z,100680.20
2019-01-25T15:28:05.654Z,100680.02
2019-01-25T15:30:36.071Z,100666.28
2019-01-25T15:33:04.896Z,100667.75
2019-01-25T15:35:36.074Z,100677.98
2019-01-25T15:38:07.204Z,100675.13
2019-01-25T15:40:36.835Z,100668.16
2019-01-25T15:43:06.419Z,100669.23
2019-01-25T15:45:36.257Z,100672.00
2019-01-25T15:48:06.317Z,100675.73
2019-01-25T15:50:35.949Z,100677.34
2019-01-25T15:53:05.949Z,100678.52
2019-01-25T15:55:36.686Z,100684.53
2019-01-25T15:58:06.397Z,100689.15
2019-01-25T16:00:36.343Z,100699.88
2019-01-25T16:03:06.215Z,100703.70
2019-01-25T16:05:35.857Z,100691.41
2019-01-25T16:08:05.773Z,100691.02
2019-01-25T16:10:35.397Z,100691.41
2019-01-25T16:13:05.051Z,100688.92
2019-01-25T16:15:34.637Z,100691.80
2019-01-25T16:18:04.265Z,100686.49
2019-01-25T16:20:33.895Z,100691.12
2019-01-25T16:23:03.731Z,100695.84
2019-01-25T16:25:34.190Z,100690.63
2019-01-25T16:28:03.810Z,100703.41
2019-01-25T16:30:53.090Z,100700.66
2019-01-25T16:33:22.635Z,100692.50
2019-01-25T16:35:52.192Z,100687.97
2019-01-25T16:38:21.772Z,100679.91
2019-01-25T16:40:51.334Z,100685.31
2019-01-25T16:43:20.891Z,100691.71
2019-01-25T16:45:50.475Z,100695.45
2019-01-25T16:48:20.102Z,100690.43
2019-01-25T16:50:49.735Z,100698.20
2019-01-25T16:53:19.711Z,100691.12
2019-01-25T16:55:49.338Z,100685.31
2019-01-25T16:58:18.886Z,100677.73
2019-01-25T17:00:48.476Z,100682.17
2019-01-25T17:03:18.191Z,100684.82
2019-01-25T17:05:47.754Z,100680.59
2019-01-25T17:08:17.399Z,100681.97
2019-01-25T17:10:47.135Z,100672.30
2019-01-25T17:13:16.765Z,100669.93
2019-01-25T17:15:46.364Z,100671.40
2019-01-25T17:18:15.988Z,100666.28
2019-01-25T17:20:45.548Z,100676.91
2019-01-25T17:23:15.148Z,100665.80
2019-01-25T17:25:44.707Z,100664.13
2019-01-25T17:28:14.284Z,100661.17
2019-01-25T17:30:43.875Z,100649.95
2019-01-25T17:33:13.428Z,100649.95
2019-01-25T17:35:43.061Z,100649.56
2019-01-25T17:38:12.633Z,100648.19
2019-01-25T17:40:46.729Z,100636.58
2019-01-25T17:43:15.462Z,100634.52
2019-01-25T17:45:45.122Z,100621.42
2019-01-25T17:48:14.747Z,100621.13
2019-01-25T17:50:44.440Z,100616.11
2019-01-25T17:53:14.258Z,100622.20
2019-01-25T17:55:43.821Z,100621.11
2019-01-25T17:58:13.375Z,100616.55
2019-01-25T18:00:45.271Z,100620.08
2019-01-25T18:03:14.838Z,100615.85
2019-01-25T18:05:44.410Z,100609.16
2019-01-25T18:08:14.073Z,100606.99
2019-01-25T18:10:43.723Z,100601.09
2019-01-25T18:13:13.348Z,100586.31
2019-01-25T18:15:42.940Z,100578.64
2019-01-25T18:18:12.938Z,100576.57
2019-01-25T18:20:42.637Z,100579.71
2019-01-25T18:23:12.414Z,100565.55
2019-01-25T18:25:46.457Z,100559.94
2019-01-25T18:28:32.685Z,100549.92
2019-01-25T18:31:12.141Z,100544.80
2019-01-25T18:33:42.263Z,100531.92
2019-01-25T18:36:11.868Z,100547.48
2019-01-25T18:38:41.425Z,100533.41
2019-01-25T18:41:11.246Z,100530.45
2019-01-25T18:43:40.807Z,100529.27
2019-01-25T18:46:10.430Z,100514.22
2019-01-25T18:48:40.279Z,100504.38
2019-01-25T18:51:09.918Z,100511.27
2019-01-25T18:53:39.468Z,100503.20
2019-01-25T18:56:10.143Z,100509.69
2019-01-25T18:58:39.735Z,100507.92
2019-01-25T19:01:09.297Z,100506.64
2019-01-25T19:03:39.165Z,100508.41
2019-01-25T19:06:08.804Z,100507.43
2019-01-25T19:08:38.351Z,100503.20
2019-01-25T19:11:08.295Z,100495.13
2019-01-25T19:13:38.009Z,100490.19
2019-01-25T19:16:07.565Z,100485.95
2019-01-25T19:18:37.329Z,100484.28
2019-01-25T19:21:07.120Z,100481.63
2019-01-25T19:23:36.680Z,100483.70
2019-01-25T19:26:06.443Z,100491.77
2019-01-25T19:28:36.006Z,100473.87
2019-01-25T19:31:05.807Z,100474.27
2019-01-25T19:33:35.555Z,100469.23
2019-01-25T19:36:05.516Z,100462.75
2019-01-25T19:38:35.078Z,100462.66
2019-01-25T19:41:05.025Z,100461.72
2019-01-25T19:43:34.651Z,100455.72
2019-01-25T19:46:04.721Z,100457.40
2019-01-25T19:48:34.381Z,100447.66
2019-01-25T19:51:04.071Z,100447.31
2019-01-25T19:53:33.625Z,100449.23
2019-01-25T19:56:03.467Z,100457.30
2019-01-25T19:58:33.078Z,100443.94
2019-01-25T20:01:02.682Z,100452.89
2019-01-25T20:03:32.310Z,100450.95
2019-01-25T20:06:01.935Z,100445.64
2019-01-25T20:08:31.501Z,100441.72
2019-01-25T20:11:01.093Z,100439.72
2019-01-25T20:13:30.652Z,100432.66
2019-01-25T20:16:01.118Z,100434.23
2019-01-25T20:18:30.696Z,100433.27
2019-01-25T20:21:00.261Z,100432.72
2019-01-25T20:23:29.901Z,100424.86
2019-01-25T20:25:59.494Z,100432.05
2019-01-25T20:28:29.056Z,100421.23
2019-01-25T20:30:58.639Z,100423.22
2019-01-25T20:33:28.312Z,100418.59
2019-01-25T20:35:57.873Z,100412.29
2019-01-25T20:38:27.428Z,100406.20
2019-01-25T20:40:57.012Z,100406.11
2019-01-25T20:43:26.650Z,100412.41
2019-01-25T20:45:56.302Z,100401.64
2019-01-25T20:48:25.952Z,100399.08
2019-01-25T20:50:55.580Z,100406.33
2019-01-25T20:53:25.206Z,100399.54
2019-01-25T20:55:54.787Z,100396.67
2019-01-25T20:58:24.435Z,100404.74
2019-01-25T21:00:54.007Z,100402.98
2019-01-25T21:03:23.772Z,100389.31
2019-01-25T21:05:53.405Z,100385.97
2019-01-25T21:08:23.034Z,100390.38
2019-01-25T21:10:52.837Z,100374.25
2019-01-25T21:13:22.396Z,100372.18
2019-01-25T21:15:52.049Z,100374.83
2019-01-25T21:18:21.666Z,100363.59
2019-01-25T21:20:51.290Z,100360.24
2019-01-25T21:23:20.985Z,100355.92
2019-01-25T21:25:50.715Z,100361.34
2019-01-25T21:28:20.435Z,100352.30
2019-01-25T21:30:50.189Z,100347.59
2019-01-25T21:33:20.047Z,100332.25
2019-01-25T21:35:49.594Z,100330.48
2019-01-25T21:38:19.156Z,100339.52
2019-01-25T21:40:48.833Z,100341.68
2019-01-25T21:43:18.396Z,100341.20
2019-01-25T21:45:48.115Z,100337.27
2019-01-25T21:48:17.883Z,100338.46
2019-01-25T21:50:47.438Z,100336.70
2019-01-25T21:53:17.154Z,100332.47
2019-01-25T21:55:46.883Z,100327.84
2019-01-25T21:58:16.513Z,100324.80
2019-01-25T22:00:46.217Z,100316.25
2019-01-25T22:03:15.871Z,100316.34
2019-01-25T22:05:45.434Z,100306.29
2019-01-25T22:08:15.055Z,100304.79
2019-01-25T22:10:45.132Z,100298.63
2019-01-25T22:13:14.739Z,100298.23
2019-01-25T22:15:50.787Z,100289.06
2019-01-25T22:18:15.925Z,100287.39
2019-01-25T22:20:45.536Z,100286.20
2019-01-25T22:23:16.918Z,100275.17
2019-01-25T22:25:46.691Z,100288.53
2019-01-25T22:28:16.257Z,100277.16
2019-01-25T22:30:56.261Z,100272.70
2019-01-25T22:33:25.819Z,100269.36
2019-01-25T22:35:55.401Z,100264.23
2019-01-25T22:38:24.974Z,100258.33
2019-01-25T22:40:54.523Z,100250.34
2019-01-25T22:43:24.085Z,100238.52
2019-01-25T22:45:58.600Z,100231.42
2019-01-25T22:48:24.963Z,100226.84
2019-01-25T22:50:54.521Z,100221.09
2019-01-25T22:53:24.581Z,100217.34
2019-01-25T22:55:54.208Z,100212.80
2019-01-25T22:58:23.762Z,100201.77
2019-01-25T23:01:09.785Z,100195.68
2019-01-25T23:03:52.734Z,100198.95
2019-01-25T23:06:32.724Z,100186.95
2019-01-25T23:09:16.162Z,100191.52
2019-01-25T23:11:46.001Z,100190.02
2019-01-25T23:14:15.556Z,100180.41
2019-01-25T23:16:45.262Z,100173.68
2019-01-25T23:19:14.924Z,100171.52
2019-01-25T23:21:44.474Z,100170.59
2019-01-25T23:24:14.040Z,100166.67
2019-01-25T23:26:43.771Z,100162.27
2019-01-25T23:29:13.407Z,100162.27
2019-01-25T23:31:43.026Z,100158.52
2019-01-25T23:34:12.774Z,100151.55
2019-01-25T23:36:42.574Z,100158.97
2019-01-25T23:39:13.149Z,100147.70
2019-01-25T23:41:42.830Z,100133.90
2019-01-25T23:44:13.355Z,100122.54
2019-01-25T23:46:42.938Z,100109.59
2019-01-25T23:49:12.983Z,100106.47
2019-01-25T23:51:42.549Z,100100.82
2019-01-25T23:54:12.340Z,100093.16
2019-01-25T23:56:41.917Z,100089.15
2019-01-25T23:59:11.657Z,100095.28
